Time;durP1;ratioP1;P1;durP2;ratioP2;P2;SDS_P1;SDS_P2;PMS_P1;PMS_P2;Temp;Humidity;BMP_temperature;BMP_pressure;BME280_temperature;BME280_humidity;BME280_pressure;Samples;Min_cycle;Max_cycle;Signal;HPM_P1;HPM_P2
2023/01/07 00:01:15;;;;;;;4.93;3.03;;;;;;;5.83;nan;-23979.59;5012918;28;20537;-69
2023/01/07 00:03:42;;;;;;;6.63;3.00;;;;;;;5.66;nan;-23974.91;5012153;28;20558;-68
2023/01/07 00:06:10;;;;;;;2.27;2.07;;;;;;;5.61;nan;-23973.47;5012626;28;20644;-69
2023/01/07 00:08:39;;;;;;;3.77;2.37;;;;;;;5.52;nan;-23970.78;5012777;28;20267;-68
2023/01/07 00:11:06;;;;;;;3.50;2.70;;;;;;;5.51;nan;-23970.63;5012718;28;20226;-69
2023/01/07 00:13:33;;;;;;;3.13;2.20;;;;;;;5.61;nan;-23973.47;5012543;28;20623;-68
2023/01/07 00:16:09;;;;;;;2.27;2.03;;;;;;;5.45;nan;-23968.78;5012670;28;20186;-69
2023/01/07 00:18:36;;;;;;;3.50;2.20;;;;;;;5.10;nan;-23959.13;5012747;28;20203;-69
2023/01/07 00:21:05;;;;;;;6.67;2.67;;;;;;;5.27;nan;-23963.94;5012320;28;20564;-69
2023/01/07 00:23:32;;;;;;;3.33;2.50;;;;;;;5.09;nan;-23958.81;5014823;28;20192;-68
2023/01/07 00:26:04;;;;;;;6.40;2.80;;;;;;;4.53;nan;-23942.91;5014353;28;20365;-69
2023/01/07 00:28:29;;;;;;;3.60;2.23;;;;;;;4.66;nan;-23946.75;5012226;28;20194;-69
2023/01/07 00:31:25;;;;;;;3.53;2.43;;;;;;;4.87;nan;-23952.72;5012529;28;20541;-69
2023/01/07 00:36:21;;;;;;;5.50;3.10;;;;;;;4.68;nan;-23947.16;5011237;28;20313;-69
2023/01/07 00:38:47;;;;;;;3.50;2.47;;;;;;;4.30;nan;-23936.50;5016603;28;20218;-68
2023/01/07 00:41:13;;;;;;;2.73;2.43;;;;;;;4.39;nan;-23939.06;5018583;28;20176;-69
2023/01/07 00:43:38;;;;;;;5.80;2.57;;;;;;;4.38;nan;-23938.75;5016465;28;20194;-68
2023/01/07 00:46:04;;;;;;;2.93;2.67;;;;;;;3.97;nan;-23927.22;5020417;28;20568;-69
2023/01/07 00:48:31;;;;;;;3.00;2.77;;;;;;;4.42;nan;-23939.91;5017102;28;20198;-69
2023/01/07 00:50:56;;;;;;;5.07;2.67;;;;;;;4.02;nan;-23928.66;5016493;28;20646;-68
2023/01/07 00:53:23;;;;;;;3.00;2.60;;;;;;;3.87;nan;-23924.38;5017980;28;20263;-69
2023/01/07 00:55:50;;;;;;;4.03;2.63;;;;;;;3.90;nan;-23925.38;5015804;28;20192;-68
2023/01/07 00:58:22;;;;;;;2.97;2.17;;;;;;;3.90;nan;-23925.22;5017941;28;20246;-69
2023/01/07 01:00:48;;;;;;;4.50;2.67;;;;;;;3.66;nan;-23918.41;5015986;28;20219;-68
2023/01/07 01:03:14;;;;;;;5.80;2.77;;;;;;;4.28;nan;-23936.06;5018082;28;20245;-69
2023/01/07 01:05:40;;;;;;;3.90;2.33;;;;;;;3.80;nan;-23922.38;5016009;28;20278;-69
2023/01/07 01:08:06;;;;;;;4.57;2.53;;;;;;;4.23;nan;-23934.63;5017382;28;20175;-68
2023/01/07 01:10:32;;;;;;;2.63;2.43;;;;;;;4.22;nan;-23934.22;5016571;28;20215;-68
2023/01/07 01:12:58;;;;;;;3.37;2.47;;;;;;;4.15;nan;-23932.22;5016111;28;20184;-68
2023/01/07 01:15:24;;;;;;;4.93;3.20;;;;;;;3.66;nan;-23918.41;5017529;28;20187;-68
2023/01/07 01:17:50;;;;;;;2.77;2.20;;;;;;;3.91;nan;-23925.53;5016088;28;20553;-68
2023/01/07 01:20:16;;;;;;;3.90;2.77;;;;;;;4.00;nan;-23928.09;5024656;28;20227;-69
2023/01/07 01:22:42;;;;;;;2.30;1.80;;;;;;;3.51;nan;-23914.41;5020477;28;20188;-68
2023/01/07 01:25:08;;;;;;;3.03;2.27;;;;;;;3.85;nan;-23923.81;5020256;28;20183;-69
2023/01/07 01:27:33;;;;;;;4.40;2.60;;;;;;;4.00;nan;-23928.09;5016621;28;20184;-68
2023/01/07 01:29:59;;;;;;;5.33;2.60;;;;;;;3.74;nan;-23920.81;5016864;28;20183;-68
2023/01/07 01:32:25;;;;;;;4.30;2.43;;;;;;;3.16;nan;-23904.44;5017938;28;20183;-68
2023/01/07 01:34:50;;;;;;;9.77;3.10;;;;;;;3.24;nan;-23906.56;5015975;28;20183;-69
2023/01/07 01:37:16;;;;;;;2.40;2.10;;;;;;;3.89;nan;-23925.09;5017666;28;20190;-69
2023/01/07 01:39:41;;;;;;;2.83;2.53;;;;;;;3.87;nan;-23924.38;5015947;28;20362;-68
2023/01/07 01:42:21;;;;;;;2.80;2.47;;;;;;;3.89;nan;-23925.09;5019796;28;20187;-68
2023/01/07 01:44:56;;;;;;;5.13;2.77;;;;;;;4.14;nan;-23932.06;5013142;28;20289;-69
2023/01/07 01:47:42;;;;;;;3.67;2.30;;;;;;;4.26;nan;-23935.34;5017796;28;20208;-69
2023/01/07 01:50:13;;;;;;;2.10;1.90;;;;;;;4.08;nan;-23930.38;5015255;28;20541;-68
2023/01/07 01:52:54;;;;;;;2.50;2.30;;;;;;;4.04;nan;-23929.22;5017160;28;20184;-69
2023/01/07 01:55:24;;;;;;;5.93;2.73;;;;;;;3.96;nan;-23926.94;5021000;28;20257;-69
2023/01/07 01:57:55;;;;;;;2.60;2.40;;;;;;;3.94;nan;-23926.53;5019101;28;20262;-68
2023/01/07 02:00:20;;;;;;;3.23;2.73;;;;;;;3.83;nan;-23923.25;5020546;28;20628;-69
2023/01/07 02:02:51;;;;;;;2.90;2.10;;;;;;;3.64;nan;-23917.81;5019030;28;20188;-68
2023/01/07 02:05:16;;;;;;;4.47;2.90;;;;;;;3.77;nan;-23921.53;5021122;28;20226;-69
2023/01/07 02:07:42;;;;;;;5.10;2.73;;;;;;;3.73;nan;-23920.38;5019275;28;20188;-69
2023/01/07 02:10:16;;;;;;;3.43;2.20;;;;;;;3.60;nan;-23916.84;5020033;28;20202;-69
2023/01/07 02:12:43;;;;;;;2.57;2.37;;;;;;;3.57;nan;-23915.97;5014646;28;20199;-68
2023/01/07 02:15:10;;;;;;;3.03;2.43;;;;;;;3.27;nan;-23907.56;5019020;28;20207;-68
2023/01/07 02:18:06;;;;;;;2.93;2.10;;;;;;;3.62;nan;-23917.25;5022822;28;20205;-68
2023/01/07 02:21:09;;;;;;;2.93;2.20;;;;;;;3.47;nan;-23913.13;5021685;28;20195;-68
2023/01/07 02:24:25;;;;;;;2.87;2.20;;;;;;;3.60;nan;-23916.69;5021608;28;20190;-68
2023/01/07 02:26:53;;;;;;;2.93;2.03;;;;;;;3.46;nan;-23912.97;5022570;28;20199;-69
2023/01/07 02:29:28;;;;;;;2.27;2.07;;;;;;;3.33;nan;-23909.13;5020007;28;20188;-68
2023/01/07 02:32:09;;;;;;;3.03;2.33;;;;;;;3.24;nan;-23906.72;5021001;28;20186;-68
2023/01/07 02:34:53;;;;;;;3.17;2.73;;;;;;;3.25;nan;-23906.84;5021524;28;20267;-69
2023/01/07 02:37:28;;;;;;;3.73;2.77;;;;;;;2.99;nan;-23899.72;5021100;28;20191;-68
2023/01/07 02:40:19;;;;;;;5.17;2.80;;;;;;;2.76;nan;-23893.16;5018463;28;20290;-68
2023/01/07 02:42:47;;;;;;;3.63;2.40;;;;;;;2.87;nan;-23896.16;5023120;28;20236;-68
2023/01/07 02:45:32;;;;;;;4.23;2.20;;;;;;;2.97;nan;-23899.16;5018722;28;20274;-68
2023/01/07 02:48:05;;;;;;;4.00;2.70;;;;;;;3.04;nan;-23901.16;5018534;28;20192;-68
2023/01/07 02:50:31;;;;;;;2.57;2.37;;;;;;;2.60;nan;-23888.72;5020614;28;20197;-68
2023/01/07 02:52:56;;;;;;;3.30;2.63;;;;;;;2.79;nan;-23894.00;5018103;28;20266;-68
2023/01/07 02:55:41;;;;;;;3.70;2.80;;;;;;;3.08;nan;-23902.16;5019810;28;20222;-68
2023/01/07 02:58:24;;;;;;;2.00;1.90;;;;;;;3.17;nan;-23904.72;5018208;28;20291;-68
2023/01/07 03:00:59;;;;;;;9.77;2.40;;;;;;;3.05;nan;-23901.44;5014704;28;20202;-68
2023/01/07 03:03:42;;;;;;;2.47;2.27;;;;;;;2.96;nan;-23898.88;5019533;28;20187;-68
2023/01/07 03:06:19;;;;;;;3.20;2.20;;;;;;;2.89;nan;-23896.72;5018779;28;20198;-68
2023/01/07 03:09:09;;;;;;;2.83;2.40;;;;;;;2.52;nan;-23886.44;5014307;28;20188;-68
2023/01/07 03:11:44;;;;;;;4.10;2.43;;;;;;;2.94;nan;-23898.16;5020492;28;20175;-68
2023/01/07 03:14:18;;;;;;;3.77;2.20;;;;;;;2.88;nan;-23896.44;5018888;28;20195;-68
2023/01/07 03:16:54;;;;;;;2.20;2.00;;;;;;;2.98;nan;-23899.28;5018289;28;20551;-68
2023/01/07 03:19:27;;;;;;;2.43;2.17;;;;;;;2.63;nan;-23889.44;5020893;28;20199;-68
2023/01/07 03:21:54;;;;;;;4.70;2.30;;;;;;;2.93;nan;-23897.88;5017627;28;20276;-68
2023/01/07 03:24:22;;;;;;;3.60;2.80;;;;;;;2.64;nan;-23889.88;5017447;28;20176;-67
2023/01/07 03:26:51;;;;;;;8.93;2.43;;;;;;;2.65;nan;-23890.00;5016312;28;20569;-68
2023/01/07 03:29:18;;;;;;;2.20;2.10;;;;;;;2.80;nan;-23894.16;5018011;28;20195;-68
2023/01/07 03:31:59;;;;;;;6.40;2.13;;;;;;;2.79;nan;-23894.00;5019177;28;20190;-68
2023/01/07 03:34:27;;;;;;;1.70;1.60;;;;;;;2.72;nan;-23891.88;5022078;28;20186;-68
2023/01/07 03:36:57;;;;;;;2.97;2.67;;;;;;;2.44;nan;-23884.16;5017347;28;20183;-68
2023/01/07 03:39:25;;;;;;;4.03;2.27;;;;;;;2.95;nan;-23898.44;5017129;28;20523;-68
2023/01/07 03:44:36;;;;;;;2.40;1.90;;;;;;;2.80;nan;-23894.16;5020302;28;20187;-68
2023/01/07 03:47:02;;;;;;;3.70;2.17;;;;;;;2.91;nan;-23897.28;5019048;28;20184;-68
2023/01/07 03:49:27;;;;;;;2.37;2.07;;;;;;;2.81;nan;-23894.44;5017349;28;20179;-68
2023/01/07 03:51:53;;;;;;;3.73;2.47;;;;;;;2.74;nan;-23892.59;5016979;28;20666;-68
2023/01/07 03:54:19;;;;;;;4.17;2.30;;;;;;;2.68;nan;-23891.00;5029272;28;20198;-67
2023/01/07 03:56:45;;;;;;;3.57;2.43;;;;;;;2.77;nan;-23893.44;5019323;28;20184;-68
2023/01/07 03:59:10;;;;;;;6.20;2.90;;;;;;;2.76;nan;-23893.16;5017338;28;20215;-68
2023/01/07 04:01:36;;;;;;;4.37;2.33;;;;;;;2.62;nan;-23889.31;5016443;28;20186;-68
2023/01/07 04:04:01;;;;;;;8.83;2.40;;;;;;;2.40;nan;-23883.03;5016692;28;20289;-68
2023/01/07 04:06:27;;;;;;;2.93;2.63;;;;;;;2.38;nan;-23882.31;5019040;28;20183;-68
2023/01/07 04:08:52;;;;;;;4.57;2.57;;;;;;;2.62;nan;-23889.16;5016738;28;20263;-68
2023/01/07 04:11:17;;;;;;;2.73;2.00;;;;;;;2.21;nan;-23877.59;5019078;28;20184;-69
2023/01/07 04:13:43;;;;;;;2.83;2.33;;;;;;;2.56;nan;-23887.44;5017155;28;20618;-68
2023/01/07 04:16:08;;;;;;;6.13;3.70;;;;;;;2.60;nan;-23888.59;5016697;28;20196;-68
2023/01/07 04:18:34;;;;;;;2.97;2.50;;;;;;;2.57;nan;-23887.72;5018453;28;20211;-68
2023/01/07 04:20:59;;;;;;;3.43;2.47;;;;;;;2.63;nan;-23889.59;5016896;28;20228;-68
2023/01/07 04:23:25;;;;;;;3.00;2.17;;;;;;;2.56;nan;-23887.44;5017023;28;20188;-68
2023/01/07 04:25:50;;;;;;;2.80;2.50;;;;;;;2.70;nan;-23891.44;5015374;28;20181;-68
2023/01/07 04:28:15;;;;;;;2.93;2.63;;;;;;;2.22;nan;-23877.88;5017189;28;20183;-68
2023/01/07 04:30:41;;;;;;;3.03;2.33;;;;;;;2.44;nan;-23884.03;5017143;28;20587;-68
2023/01/07 04:33:06;;;;;;;3.47;2.20;;;;;;;2.15;nan;-23876.03;5016348;28;20184;-68
2023/01/07 04:35:33;;;;;;;3.37;2.87;;;;;;;2.50;nan;-23885.88;5018221;28;20184;-67
2023/01/07 04:37:58;;;;;;;4.47;2.80;;;;;;;2.01;nan;-23872.03;5015369;28;20579;-67
2023/01/07 04:40:25;;;;;;;3.73;2.57;;;;;;;2.13;nan;-23875.47;5016017;28;20203;-67
2023/01/07 04:42:50;;;;;;;3.80;2.40;;;;;;;2.36;nan;-23881.75;5016376;28;20215;-68
2023/01/07 04:45:16;;;;;;;2.33;2.13;;;;;;;1.91;nan;-23869.03;5015425;28;20211;-68
2023/01/07 04:47:41;;;;;;;4.73;2.67;;;;;;;2.51;nan;-23886.03;5015936;28;20214;-68
2023/01/07 04:50:07;;;;;;;2.60;1.97;;;;;;;2.55;nan;-23887.31;5018181;28;20222;-68
2023/01/07 04:52:33;;;;;;;2.90;2.43;;;;;;;2.41;nan;-23883.31;5013275;28;20386;-68
2023/01/07 04:54:58;;;;;;;3.27;2.37;;;;;;;2.36;nan;-23881.88;5018273;28;20675;-71
2023/01/07 04:57:24;;;;;;;4.27;2.27;;;;;;;2.04;nan;-23872.88;5012969;28;20504;-67
2023/01/07 04:59:49;;;;;;;5.10;3.07;;;;;;;1.70;nan;-23863.31;5014796;28;20211;-68
2023/01/07 05:02:15;;;;;;;2.93;2.20;;;;;;;2.05;nan;-23873.03;5018110;28;20275;-67
2023/01/07 05:04:40;;;;;;;2.43;2.03;;;;;;;1.58;nan;-23859.88;5015868;28;20266;-67
2023/01/07 05:07:06;;;;;;;2.83;2.20;;;;;;;1.63;nan;-23861.16;5015993;28;20578;-67
2023/01/07 05:09:32;;;;;;;2.47;2.27;;;;;;;1.66;nan;-23862.19;5013951;28;20603;-67
2023/01/07 05:11:57;;;;;;;4.57;2.67;;;;;;;2.09;nan;-23874.31;5018858;28;20651;-68
2023/01/07 05:14:23;;;;;;;4.83;1.97;;;;;;;2.14;nan;-23875.59;5017056;28;20187;-67
2023/01/07 05:16:48;;;;;;;2.53;2.33;;;;;;;2.05;nan;-23873.03;5049943;28;20256;-68
2023/01/07 05:19:13;;;;;;;4.83;2.73;;;;;;;1.94;nan;-23869.88;5016849;28;20344;-68
2023/01/07 05:21:39;;;;;;;5.03;2.90;;;;;;;1.87;nan;-23868.03;5016149;28;20269;-68
2023/01/07 05:24:04;;;;;;;2.07;1.93;;;;;;;2.14;nan;-23875.75;5017966;28;20254;-67
2023/01/07 05:26:30;;;;;;;4.20;2.47;;;;;;;2.02;nan;-23872.16;5009348;28;20184;-67
2023/01/07 05:28:55;;;;;;;3.20;2.30;;;;;;;1.60;nan;-23860.31;5019506;28;20256;-67
2023/01/07 05:31:21;;;;;;;3.23;2.00;;;;;;;1.47;nan;-23856.75;5017737;28;20198;-68
2023/01/07 05:33:46;;;;;;;3.40;2.80;;;;;;;2.09;nan;-23874.16;5020031;28;20197;-69
2023/01/07 05:36:12;;;;;;;3.13;2.80;;;;;;;1.55;nan;-23859.03;5019757;28;20266;-68
2023/01/07 05:38:37;;;;;;;2.43;2.23;;;;;;;1.90;nan;-23868.75;5019663;28;20794;-68
2023/01/07 05:41:03;;;;;;;4.37;3.27;;;;;;;1.94;nan;-23869.88;5023596;28;20193;-69
2023/01/07 05:43:29;;;;;;;2.83;2.63;;;;;;;1.45;nan;-23856.16;5019835;28;20249;-69
2023/01/07 05:45:58;;;;;;;2.90;2.33;;;;;;;1.65;nan;-23861.75;5020023;28;20187;-68
2023/01/07 05:48:23;;;;;;;3.57;2.33;;;;;;;1.57;nan;-23859.47;5021231;28;20190;-68
2023/01/07 05:50:49;;;;;;;3.07;2.80;;;;;;;1.79;nan;-23865.75;5019501;28;20605;-68
2023/01/07 05:53:14;;;;;;;5.73;3.13;;;;;;;1.80;nan;-23866.03;5018990;28;20184;-69
2023/01/07 05:55:40;;;;;;;4.13;2.90;;;;;;;1.30;nan;-23852.03;5015494;28;20246;-68
2023/01/07 05:58:06;;;;;;;4.87;2.37;;;;;;;1.07;nan;-23845.31;5021562;28;20666;-69
2023/01/07 06:00:33;;;;;;;5.70;3.13;;;;;;;1.75;nan;-23864.59;5017957;28;20211;-69
2023/01/07 06:02:58;;;;;;;3.90;2.60;;;;;;;1.35;nan;-23853.31;5020337;28;20601;-69
2023/01/07 06:05:24;;;;;;;3.57;2.93;;;;;;;1.37;nan;-23853.88;5018692;28;20321;-68
2023/01/07 06:07:49;;;;;;;5.53;2.97;;;;;;;1.56;nan;-23859.16;5019048;28;20562;-68
2023/01/07 06:10:15;;;;;;;4.07;2.43;;;;;;;1.28;nan;-23851.44;5018891;28;20192;-68
2023/01/07 06:12:40;;;;;;;8.90;4.33;;;;;;;1.15;nan;-23847.75;5018858;28;20520;-67
2023/01/07 06:15:06;;;;;;;11.07;5.40;;;;;;;1.33;nan;-23852.75;5018970;28;20252;-68
2023/01/07 06:17:32;;;;;;;12.80;6.23;;;;;;;1.43;nan;-23855.59;5019245;28;20205;-68
2023/01/07 06:19:58;;;;;;;32.37;9.40;;;;;;;1.49;nan;-23857.16;5015382;28;20217;-68
2023/01/07 06:22:23;;;;;;;22.17;12.33;;;;;;;1.53;nan;-23858.44;5022831;28;20201;-68
2023/01/07 06:24:49;;;;;;;16.40;9.83;;;;;;;1.70;nan;-23863.16;5019094;28;20657;-67
2023/01/07 06:27:14;;;;;;;28.87;10.50;;;;;;;1.71;nan;-23863.59;5017645;28;20184;-67
2023/01/07 06:29:40;;;;;;;36.70;7.27;;;;;;;1.46;nan;-23856.31;5020988;28;20182;-68
2023/01/07 06:32:05;;;;;;;17.70;8.40;;;;;;;2.09;nan;-23874.31;5018873;28;20650;-70
2023/01/07 06:34:31;;;;;;;19.83;7.13;;;;;;;1.66;nan;-23862.19;5018951;28;20580;-70
2023/01/07 06:36:56;;;;;;;14.50;6.50;;;;;;;2.07;nan;-23873.75;5015154;28;20644;-68
2023/01/07 06:39:22;;;;;;;9.10;5.23;;;;;;;2.38;nan;-23882.44;5019875;28;20249;-68
2023/01/07 06:41:47;;;;;;;16.57;4.40;;;;;;;2.42;nan;-23883.59;5018915;28;20639;-69
2023/01/07 06:44:12;;;;;;;6.33;3.90;;;;;;;2.44;nan;-23884.16;5018256;28;20344;-68
2023/01/07 06:46:38;;;;;;;7.10;4.30;;;;;;;2.19;nan;-23877.03;5015815;28;20245;-68
2023/01/07 06:49:03;;;;;;;5.37;3.37;;;;;;;2.15;nan;-23876.03;5018959;28;20176;-68
2023/01/07 06:51:29;;;;;;;4.63;3.17;;;;;;;2.18;nan;-23876.75;5019111;28;20191;-68
2023/01/07 06:53:54;;;;;;;13.50;3.50;;;;;;;2.63;nan;-23889.59;5015986;28;20623;-68
2023/01/07 06:56:20;;;;;;;9.27;4.03;;;;;;;2.27;nan;-23879.16;5014044;28;20560;-68
2023/01/07 06:58:45;;;;;;;13.83;4.00;;;;;;;2.29;nan;-23879.75;5016467;28;20208;-69
2023/01/07 07:01:11;;;;;;;5.07;3.80;;;;;;;2.50;nan;-23885.88;5023785;28;20226;-68
2023/01/07 07:03:36;;;;;;;10.27;5.03;;;;;;;2.45;nan;-23884.44;5019847;28;20652;-75
2023/01/07 07:06:02;;;;;;;4.73;3.80;;;;;;;2.47;nan;-23885.03;5018779;28;20187;-69
2023/01/07 07:08:27;;;;;;;6.63;4.33;;;;;;;2.74;nan;-23892.59;5013746;28;20219;-69
2023/01/07 07:10:53;;;;;;;8.27;4.83;;;;;;;3.13;nan;-23903.44;5015554;28;20276;-68
2023/01/07 07:13:18;;;;;;;8.87;4.33;;;;;;;3.04;nan;-23901.16;5019731;28;20805;-68
2023/01/07 07:15:43;;;;;;;6.23;4.17;;;;;;;3.35;nan;-23909.84;5018422;28;20187;-68
2023/01/07 07:18:09;;;;;;;4.00;2.67;;;;;;;3.59;nan;-23916.41;5011904;28;20197;-68
2023/01/07 07:20:34;;;;;;;6.73;4.17;;;;;;;3.76;nan;-23921.25;5013385;28;20302;-69
2023/01/07 07:23:01;;;;;;;4.40;3.40;;;;;;;3.61;nan;-23916.97;5014825;28;20191;-69
2023/01/07 07:25:27;;;;;;;9.90;4.60;;;;;;;3.53;nan;-23914.97;5015524;28;20184;-69
2023/01/07 07:27:52;;;;;;;6.90;3.30;;;;;;;3.92;nan;-23925.81;5017682;28;20324;-69
2023/01/07 07:30:18;;;;;;;4.57;2.67;;;;;;;3.64;nan;-23917.97;5019518;28;20278;-69
2023/01/07 07:32:43;;;;;;;5.90;3.60;;;;;;;4.28;nan;-23936.06;5015372;28;20184;-69
2023/01/07 07:35:10;;;;;;;9.93;4.57;;;;;;;4.18;nan;-23933.22;5018245;28;20191;-69
2023/01/07 07:37:35;;;;;;;4.63;3.67;;;;;;;4.65;nan;-23946.31;5017303;28;20215;-69
2023/01/07 07:40:02;;;;;;;3.80;3.40;;;;;;;4.72;nan;-23948.44;5014923;28;20234;-69
2023/01/07 07:42:28;;;;;;;4.63;3.90;;;;;;;4.51;nan;-23942.47;5019914;28;20233;-68
2023/01/07 07:44:53;;;;;;;10.40;3.83;;;;;;;4.35;nan;-23937.91;5017240;28;20679;-68
2023/01/07 07:47:18;;;;;;;5.97;3.10;;;;;;;5.00;nan;-23956.25;5017441;28;20213;-68
2023/01/07 07:49:44;;;;;;;9.27;3.03;;;;;;;4.96;nan;-23955.13;5016882;28;20184;-68
2023/01/07 07:52:09;;;;;;;6.27;3.93;;;;;;;4.61;nan;-23945.16;5014589;28;20537;-68
2023/01/07 07:54:35;;;;;;;4.40;3.47;;;;;;;3.79;nan;-23922.25;5013222;28;20188;-70
2023/01/07 07:57:02;;;;;;;3.57;2.93;;;;;;;4.59;nan;-23944.59;5017220;28;20191;-69
2023/01/07 07:59:28;;;;;;;5.50;3.33;;;;;;;4.84;nan;-23951.72;5016615;28;20321;-67
2023/01/07 08:01:53;;;;;;;6.40;3.33;;;;;;;4.74;nan;-23948.88;5016466;28;20525;-69
2023/01/07 08:04:19;;;;;;;5.87;3.10;;;;;;;5.30;nan;-23964.81;5016515;28;20337;-70
2023/01/07 08:06:44;;;;;;;5.77;3.27;;;;;;;5.48;nan;-23969.78;5014244;28;20258;-70
2023/01/07 08:09:09;;;;;;;3.13;2.77;;;;;;;5.29;nan;-23964.50;5015960;28;20571;-70
2023/01/07 08:11:35;;;;;;;3.30;2.70;;;;;;;5.47;nan;-23969.50;5016900;28;20561;-71
2023/01/07 08:14:00;;;;;;;3.73;3.17;;;;;;;5.20;nan;-23961.81;5014268;28;20176;-70
2023/01/07 08:16:26;;;;;;;5.17;2.43;;;;;;;5.37;nan;-23966.50;5018144;28;20184;-71
2023/01/07 08:18:51;;;;;;;5.63;3.53;;;;;;;5.75;nan;-23977.31;5011301;28;20710;-71
2023/01/07 08:21:16;;;;;;;3.93;2.50;;;;;;;5.42;nan;-23967.94;5018963;28;20192;-70
2023/01/07 08:23:42;;;;;;;8.63;3.93;;;;;;;5.81;nan;-23978.88;5011734;28;20180;-70
2023/01/07 08:26:07;;;;;;;6.67;3.93;;;;;;;5.97;nan;-23983.41;5017389;28;20237;-70
2023/01/07 08:28:33;;;;;;;10.20;3.67;;;;;;;6.20;nan;-23990.09;5015345;28;20659;-71
2023/01/07 08:31:02;;;;;;;4.97;3.10;;;;;;;6.63;nan;-24002.16;5015766;28;20659;-71
2023/01/07 08:33:28;;;;;;;4.23;3.13;;;;;;;6.72;nan;-24004.56;5017312;28;20678;-74
2023/01/07 08:35:53;;;;;;;5.57;3.07;;;;;;;6.37;nan;-23994.78;5020589;28;20700;-70
2023/01/07 08:38:19;;;;;;;4.97;3.17;;;;;;;6.17;nan;-23989.09;5016323;28;20215;-71
2023/01/07 08:40:44;;;;;;;7.87;3.63;;;;;;;6.64;nan;-24002.31;5016891;28;20534;-71
2023/01/07 08:43:11;;;;;;;5.23;3.27;;;;;;;7.06;nan;-24014.22;5017827;28;20179;-72
2023/01/07 08:45:36;;;;;;;3.13;2.83;;;;;;;7.26;nan;-24019.63;5017712;28;20187;-70
2023/01/07 08:48:02;;;;;;;3.17;2.80;;;;;;;7.49;nan;-24026.28;5015818;28;20770;-71
2023/01/07 08:50:31;;;;;;;3.13;2.83;;;;;;;7.53;nan;-24027.41;5015732;28;20548;-71
2023/01/07 08:52:57;;;;;;;4.30;2.70;;;;;;;7.13;nan;-24015.94;5017443;28;20183;-70
2023/01/07 08:55:23;;;;;;;4.87;2.57;;;;;;;7.03;nan;-24013.38;5017943;28;20650;-71
2023/01/07 08:57:49;;;;;;;2.63;2.40;;;;;;;7.15;nan;-24016.63;5013156;28;20438;-71
2023/01/07 09:00:16;;;;;;;3.37;2.47;;;;;;;7.33;nan;-24021.75;5022826;28;20269;-71
2023/01/07 09:02:42;;;;;;;3.53;2.63;;;;;;;7.63;nan;-24030.09;5022755;28;20184;-71
2023/01/07 09:05:08;;;;;;;5.20;2.50;;;;;;;8.02;nan;-24040.88;5020924;28;20231;-70
2023/01/07 09:07:33;;;;;;;3.47;2.77;;;;;;;7.77;nan;-24034.06;5020644;28;20183;-71
2023/01/07 09:09:59;;;;;;;3.67;2.63;;;;;;;8.21;nan;-24046.25;5019828;28;20257;-70
2023/01/07 09:12:24;;;;;;;6.03;2.97;;;;;;;8.50;nan;-24054.47;5021209;28;20178;-70
2023/01/07 09:14:50;;;;;;;2.73;2.30;;;;;;;8.20;nan;-24045.97;5017193;28;20329;-70
2023/01/07 09:17:15;;;;;;;3.67;2.60;;;;;;;8.21;nan;-24046.25;5020025;28;20191;-71
2023/01/07 09:19:41;;;;;;;3.07;2.60;;;;;;;8.75;nan;-24061.53;5021475;28;20600;-70
2023/01/07 09:22:06;;;;;;;4.60;3.03;;;;;;;8.93;nan;-24066.50;5018859;28;20206;-70
2023/01/07 09:24:31;;;;;;;6.47;3.20;;;;;;;9.09;nan;-24070.88;5017089;28;20175;-71
2023/01/07 09:26:57;;;;;;;4.95;2.85;;;;;;;9.20;nan;-24074.00;5016303;28;20180;-70
2023/01/07 09:29:22;;;;;;;5.00;3.10;;;;;;;9.12;nan;-24071.88;5017733;28;20179;-71
2023/01/07 09:31:48;;;;;;;4.90;3.03;;;;;;;9.17;nan;-24073.13;5017227;28;20180;-71
2023/01/07 09:34:13;;;;;;;3.67;2.60;;;;;;;9.34;nan;-24077.81;5016843;28;20561;-71
2023/01/07 09:36:39;;;;;;;3.65;2.65;;;;;;;9.27;nan;-24075.97;5017724;28;20187;-72
2023/01/07 09:39:04;;;;;;;4.30;3.10;;;;;;;9.66;nan;-24086.97;5017739;28;20208;-72
2023/01/07 09:42:28;;;;;;;3.08;2.50;;;;;;;10.03;nan;-24097.16;5016882;28;20175;-71
2023/01/07 09:45:08;;;;;;;2.95;2.50;;;;;;;10.31;nan;-24105.06;4997215;28;20179;-71
2023/01/07 09:47:36;;;;;;;7.18;2.22;;;;;;;10.48;nan;-24109.88;4997109;28;20612;-71
2023/01/07 09:50:30;;;;;;;3.55;2.35;;;;;;;10.35;nan;-24106.19;5007194;28;20192;-74
2023/01/07 09:53:04;;;;;;;3.47;2.33;;;;;;;10.12;nan;-24099.69;5016824;28;20198;-70
2023/01/07 09:55:37;;;;;;;3.97;2.40;;;;;;;10.48;nan;-24109.88;5016222;28;20278;-69
2023/01/07 09:58:04;;;;;;;4.43;2.45;;;;;;;10.78;nan;-24118.19;5014419;28;20717;-70
2023/01/07 10:00:34;;;;;;;2.28;1.92;;;;;;;10.74;nan;-24116.91;5016039;28;20613;-70
2023/01/07 10:03:14;;;;;;;2.85;2.17;;;;;;;10.96;nan;-24123.25;5017012;28;20192;-72
2023/01/07 10:06:17;;;;;;;2.90;2.42;;;;;;;11.20;nan;-24129.88;5048135;28;20619;-71
2023/01/07 10:09:13;;;;;;;4.00;2.78;;;;;;;11.37;nan;-24134.69;5016492;28;20269;-72
2023/01/07 10:11:54;;;;;;;3.08;2.03;;;;;;;11.42;nan;-24135.97;5017164;28;20202;-71
2023/01/07 10:14:37;;;;;;;2.67;2.00;;;;;;;11.50;nan;-24138.22;5015275;28;20279;-70
2023/01/07 10:17:27;;;;;;;2.83;2.20;;;;;;;11.58;nan;-24140.31;5017156;28;20179;-72
2023/01/07 10:20:17;;;;;;;2.60;1.98;;;;;;;11.68;nan;-24143.28;5017933;28;20233;-72
2023/01/07 10:22:56;;;;;;;2.00;1.80;;;;;;;11.25;nan;-24131.16;5005779;28;20191;-71
2023/01/07 10:25:44;;;;;;;2.10;1.90;;;;;;;11.71;nan;-24144.13;5014037;28;20180;-71
2023/01/07 10:28:42;;;;;;;3.60;2.00;;;;;;;11.86;nan;-24148.34;5014129;28;20187;-71
2023/01/07 10:31:16;;;;;;;3.15;2.53;;;;;;;11.85;nan;-24147.94;5013413;28;20652;-71
2023/01/07 10:33:44;;;;;;;8.35;2.53;;;;;;;11.70;nan;-24143.69;5013802;28;20191;-70
2023/01/07 10:36:29;;;;;;;5.25;2.38;;;;;;;11.48;nan;-24137.63;5013510;28;20176;-67
2023/01/07 10:39:05;;;;;;;4.55;2.80;;;;;;;12.01;nan;-24152.44;5013493;28;20226;-67
2023/01/07 10:41:52;;;;;;;3.20;2.60;;;;;;;11.87;nan;-24148.50;5018505;28;20184;-68
2023/01/07 10:44:56;;;;;;;4.28;2.63;;;;;;;12.18;nan;-24157.22;5013836;28;20299;-66
2023/01/07 10:47:40;;;;;;;2.55;2.00;;;;;;;12.11;nan;-24155.25;5013768;28;20666;-66
2023/01/07 10:50:17;;;;;;;3.92;2.67;;;;;;;12.31;nan;-24160.75;5013199;28;20219;-67
2023/01/07 10:52:48;;;;;;;3.38;2.50;;;;;;;12.24;nan;-24158.91;5013351;28;20179;-68
2023/01/07 10:55:41;;;;;;;4.22;2.38;;;;;;;12.08;nan;-24154.25;5013421;28;20179;-68
2023/01/07 10:58:10;;;;;;;4.20;2.65;;;;;;;12.55;nan;-24167.34;5013149;28;20172;-66
2023/01/07 11:00:37;;;;;;;5.22;2.72;;;;;;;12.20;nan;-24157.78;5012722;28;20199;-69
2023/01/07 11:03:03;;;;;;;3.88;2.30;;;;;;;12.42;nan;-24163.69;5013048;28;20222;-66
2023/01/07 11:05:35;;;;;;;5.53;2.50;;;;;;;12.10;nan;-24154.97;5013261;28;20631;-68
2023/01/07 11:08:03;;;;;;;6.03;2.70;;;;;;;11.98;nan;-24151.44;5013090;28;20160;-69
2023/01/07 11:10:36;;;;;;;5.57;2.80;;;;;;;12.86;nan;-24176.06;5012626;28;20271;-67
2023/01/07 11:13:20;;;;;;;4.80;2.95;;;;;;;12.60;nan;-24168.75;5012931;28;20168;-70
2023/01/07 11:15:55;;;;;;;5.43;3.08;;;;;;;12.47;nan;-24165.25;5012913;28;20321;-70
2023/01/07 11:18:43;;;;;;;5.63;2.85;;;;;;;12.78;nan;-24173.81;5012991;28;20172;-67
2023/01/07 11:21:08;;;;;;;16.30;3.25;;;;;;;12.39;nan;-24163.13;5014501;28;20218;-70
2023/01/07 11:23:35;;;;;;;5.40;2.97;;;;;;;12.76;nan;-24173.41;5012971;28;20632;-68
2023/01/07 11:26:36;;;;;;;4.30;2.88;;;;;;;13.00;nan;-24180.00;5011592;28;20295;-69
2023/01/07 11:29:15;;;;;;;3.85;2.70;;;;;;;12.89;nan;-24176.78;5009899;28;20606;-65
2023/01/07 11:32:02;;;;;;;8.52;2.55;;;;;;;13.05;nan;-24181.41;4998277;28;20659;-69
2023/01/07 11:34:50;;;;;;;4.30;2.60;;;;;;;13.33;nan;-24189.00;4993385;28;20177;-69
2023/01/07 11:37:40;;;;;;;3.33;2.47;;;;;;;13.31;nan;-24188.59;4992597;28;20173;-70
2023/01/07 11:40:11;;;;;;;3.58;2.83;;;;;;;13.21;nan;-24185.78;5012508;28;20216;-66
2023/01/07 11:42:54;;;;;;;4.43;2.53;;;;;;;13.28;nan;-24187.75;5017104;28;20191;-67
2023/01/07 11:45:32;;;;;;;3.13;2.20;;;;;;;12.73;nan;-24172.41;5015865;28;20183;-69
2023/01/07 11:48:01;;;;;;;4.70;2.40;;;;;;;13.15;nan;-24184.09;5016609;28;20189;-67
2023/01/07 11:50:32;;;;;;;5.32;3.03;;;;;;;13.40;nan;-24190.97;5015994;28;20255;-67
2023/01/07 11:53:01;;;;;;;5.25;3.05;;;;;;;13.32;nan;-24188.72;5016410;28;21279;-70
2023/01/07 11:55:28;;;;;;;4.80;3.17;;;;;;;13.20;nan;-24185.63;5016693;28;20176;-69
2023/01/07 11:57:55;;;;;;;4.93;3.10;;;;;;;12.96;nan;-24178.88;5016302;28;20184;-67
2023/01/07 12:00:21;;;;;;;4.95;3.13;;;;;;;13.28;nan;-24187.88;5015081;28;20269;-69
2023/01/07 12:03:11;;;;;;;5.88;3.92;;;;;;;13.35;nan;-24189.56;5015042;28;20906;-66
2023/01/07 12:05:39;;;;;;;7.00;3.22;;;;;;;13.07;nan;-24181.97;5014271;28;20719;-67
2023/01/07 12:08:05;;;;;;;7.70;3.15;;;;;;;13.41;nan;-24191.38;5015758;28;20191;-69